createdAt,value
2023-05-15T00:01:41.606Z,9.81
2023-05-15T00:04:08.829Z,9.81
2023-05-15T00:06:35.568Z,9.82
2023-05-15T00:09:02.231Z,9.86
2023-05-15T00:11:28.968Z,9.91
2023-05-15T00:13:55.744Z,9.79
2023-05-15T00:16:22.678Z,9.60
2023-05-15T00:18:49.353Z,9.16
2023-05-15T00:21:17.216Z,9.51
2023-05-15T00:23:50.267Z,9.68
2023-05-15T00:26:17.002Z,9.66
2023-05-15T00:28:43.700Z,9.67
2023-05-15T00:31:12.522Z,9.75
2023-05-15T00:33:39.241Z,9.72
2023-05-15T00:36:06.605Z,9.71
2023-05-15T00:38:33.763Z,9.81
2023-05-15T00:41:01.907Z,9.79
2023-05-15T00:43:28.861Z,9.82
2023-05-15T00:45:55.939Z,9.75
2023-05-15T00:48:25.478Z,9.34
2023-05-15T00:50:52.380Z,9.28
2023-05-15T00:53:19.128Z,8.95
2023-05-15T00:55:46.970Z,9.18
2023-05-15T00:58:15.368Z,9.31
2023-05-15T01:00:46.535Z,9.35
2023-05-15T01:03:13.587Z,9.44
2023-05-15T01:05:40.760Z,9.50
2023-05-15T01:08:16.518Z,9.68
2023-05-15T01:10:44.213Z,9.72
2023-05-15T01:13:12.759Z,9.77
2023-05-15T01:15:39.532Z,9.79
2023-05-15T01:18:07.368Z,9.66
2023-05-15T01:21:10.804Z,9.28
2023-05-15T01:24:16.697Z,9.42
2023-05-15T01:27:07.960Z,9.37
2023-05-15T01:29:40.807Z,9.34
2023-05-15T01:32:42.937Z,9.10
2023-05-15T01:35:21.760Z,9.29
2023-05-15T01:37:54.901Z,9.37
2023-05-15T01:40:24.921Z,9.39
2023-05-15T01:42:56.059Z,9.43
2023-05-15T01:45:25.216Z,9.41
2023-05-15T01:47:54.499Z,9.49
2023-05-15T01:50:22.165Z,9.51
2023-05-15T01:52:52.277Z,9.50
2023-05-15T01:55:23.020Z,9.42
2023-05-15T01:57:51.567Z,9.51
2023-05-15T02:00:19.267Z,9.51
2023-05-15T02:02:47.788Z,9.19
2023-05-15T02:05:15.089Z,8.96
2023-05-15T02:07:45.986Z,9.21
2023-05-15T02:10:14.329Z,9.36
2023-05-15T02:12:41.751Z,9.43
2023-05-15T02:15:10.806Z,9.52
2023-05-15T02:17:37.992Z,9.63
2023-05-15T02:20:08.620Z,9.64
2023-05-15T02:22:35.479Z,9.62
2023-05-15T02:25:02.320Z,9.64
2023-05-15T02:27:53.683Z,9.54
2023-05-15T02:30:32.714Z,9.59
2023-05-15T02:33:35.895Z,9.59
2023-05-15T02:36:06.786Z,9.66
2023-05-15T02:38:39.229Z,9.76
2023-05-15T02:41:07.711Z,9.75
2023-05-15T02:43:36.510Z,9.62
2023-05-15T02:46:05.322Z,9.44
2023-05-15T02:48:32.409Z,9.53
2023-05-15T02:50:59.432Z,9.42
2023-05-15T02:53:26.148Z,9.60
2023-05-15T02:55:52.803Z,9.66
2023-05-15T02:58:19.534Z,9.53
2023-05-15T03:00:46.265Z,9.48
2023-05-15T03:03:12.934Z,9.50
2023-05-15T03:05:39.649Z,9.50
2023-05-15T03:08:06.405Z,9.35
2023-05-15T03:10:33.034Z,9.12
2023-05-15T03:12:59.720Z,9.24
2023-05-15T03:15:26.591Z,9.40
2023-05-15T03:17:53.590Z,9.41
2023-05-15T03:20:20.384Z,9.49
2023-05-15T03:22:47.111Z,9.50
2023-05-15T03:25:13.814Z,9.59
2023-05-15T03:27:40.513Z,9.68
2023-05-15T03:30:07.850Z,9.69
2023-05-15T03:32:34.944Z,9.60
2023-05-15T03:35:01.632Z,9.57
2023-05-15T03:37:28.739Z,9.63
2023-05-15T03:39:55.464Z,9.66
2023-05-15T03:42:23.716Z,9.72
2023-05-15T03:44:50.921Z,9.88
2023-05-15T03:47:17.859Z,9.77
2023-05-15T03:49:46.190Z,9.67
2023-05-15T03:52:13.265Z,9.65
2023-05-15T03:54:40.393Z,9.68
2023-05-15T03:57:07.855Z,9.80
2023-05-15T03:59:34.752Z,9.70
2023-05-15T04:02:04.892Z,9.88
2023-05-15T04:04:32.674Z,10.09
2023-05-15T04:06:59.866Z,10.22
2023-05-15T04:09:26.584Z,10.36
2023-05-15T04:11:54.191Z,10.41
2023-05-15T04:14:20.975Z,10.46
2023-05-15T04:16:47.657Z,10.32
2023-05-15T04:19:14.497Z,10.32
2023-05-15T04:21:41.201Z,10.48
2023-05-15T04:24:08.526Z,10.52
2023-05-15T04:26:35.283Z,10.46
2023-05-15T04:29:04.475Z,10.80
2023-05-15T04:31:31.775Z,10.83
2023-05-15T04:33:58.712Z,10.95
2023-05-15T04:36:25.785Z,11.07
2023-05-15T04:38:52.566Z,11.12
2023-05-15T04:41:19.205Z,11.25
2023-05-15T04:43:46.105Z,11.23
2023-05-15T04:46:12.913Z,10.99
2023-05-15T04:48:39.817Z,11.04
2023-05-15T04:51:07.614Z,11.11
2023-05-15T04:53:34.451Z,11.34
2023-05-15T04:56:01.173Z,11.70
2023-05-15T04:58:27.909Z,11.96
2023-05-15T05:00:54.588Z,12.25
2023-05-15T05:03:21.338Z,12.67
2023-05-15T05:05:48.070Z,12.92
2023-05-15T05:08:14.756Z,13.02
2023-05-15T05:10:41.400Z,12.76
2023-05-15T05:13:08.072Z,12.90
2023-05-15T05:15:34.802Z,13.12
2023-05-15T05:18:01.819Z,13.29
2023-05-15T05:20:28.706Z,13.27
2023-05-15T05:22:55.393Z,12.91
2023-05-15T05:25:22.155Z,12.95
2023-05-15T05:27:48.829Z,12.96
2023-05-15T05:30:15.728Z,12.98
2023-05-15T05:32:42.482Z,13.05
2023-05-15T05:35:09.528Z,13.21
2023-05-15T05:37:37.529Z,13.02
2023-05-15T05:40:06.685Z,12.80
2023-05-15T05:42:33.361Z,12.40
2023-05-15T05:45:00.545Z,12.47
2023-05-15T05:47:27.290Z,12.63
2023-05-15T05:49:55.213Z,12.62
2023-05-15T05:52:21.963Z,12.55
2023-05-15T05:54:48.944Z,12.73
2023-05-15T05:57:15.781Z,12.73
2023-05-15T05:59:42.554Z,12.91
2023-05-15T06:02:09.904Z,12.86
2023-05-15T06:04:36.989Z,12.94
2023-05-15T06:07:03.996Z,12.82
2023-05-15T06:09:30.687Z,12.80
2023-05-15T06:11:57.525Z,12.76
2023-05-15T06:14:24.290Z,12.69
2023-05-15T06:16:50.956Z,12.53
2023-05-15T06:19:17.868Z,12.75
2023-05-15T06:21:44.627Z,12.96
2023-05-15T06:24:11.272Z,13.10
2023-05-15T06:26:38.625Z,13.19
2023-05-15T06:29:05.290Z,13.34
2023-05-15T06:31:32.283Z,13.19
2023-05-15T06:33:59.086Z,13.37
2023-05-15T06:36:25.769Z,13.58
2023-05-15T06:38:52.486Z,13.64
2023-05-15T06:41:19.189Z,13.74
2023-05-15T06:43:45.909Z,13.86
2023-05-15T06:46:12.672Z,13.92
2023-05-15T06:48:39.411Z,13.90
2023-05-15T06:51:06.113Z,13.75
2023-05-15T06:53:32.911Z,13.93
2023-05-15T06:55:59.626Z,13.99
2023-05-15T06:58:26.481Z,13.96
2023-05-15T07:00:54.260Z,14.01
2023-05-15T07:03:24.005Z,14.17
2023-05-15T07:05:52.162Z,13.83
2023-05-15T07:08:18.755Z,14.24
2023-05-15T07:10:45.732Z,14.30
2023-05-15T07:13:12.498Z,14.34
2023-05-15T07:15:39.698Z,14.46
2023-05-15T07:18:06.939Z,14.43
2023-05-15T07:20:35.129Z,14.47
2023-05-15T07:23:02.052Z,14.51
2023-05-15T07:25:29.092Z,14.48
2023-05-15T07:27:56.296Z,14.52
2023-05-15T07:30:23.319Z,14.56
2023-05-15T07:32:50.367Z,14.96
2023-05-15T07:35:17.181Z,15.15
2023-05-15T07:37:43.955Z,15.26
2023-05-15T07:40:11.065Z,15.28
2023-05-15T07:42:39.729Z,15.49
2023-05-15T07:45:07.560Z,15.53
2023-05-15T07:47:35.819Z,15.36
2023-05-15T07:50:03.130Z,15.40
2023-05-15T07:52:29.918Z,15.70
2023-05-15T07:54:56.634Z,15.92
2023-05-15T07:57:24.282Z,15.99
2023-05-15T07:59:50.952Z,15.81
2023-05-15T08:02:17.636Z,15.85
2023-05-15T08:04:44.323Z,15.92
2023-05-15T08:07:10.980Z,15.87
2023-05-15T08:09:37.680Z,15.78
2023-05-15T08:12:21.779Z,15.92
2023-05-15T08:14:53.419Z,16.13
2023-05-15T08:17:20.974Z,16.25
2023-05-15T08:19:48.711Z,16.30
2023-05-15T08:22:16.022Z,16.27
2023-05-15T08:24:42.985Z,16.43
2023-05-15T08:27:09.703Z,16.51
2023-05-15T08:29:39.349Z,16.72
2023-05-15T08:32:07.889Z,17.01
2023-05-15T08:34:34.617Z,17.15
2023-05-15T08:37:01.433Z,17.36
2023-05-15T08:39:28.854Z,17.29
2023-05-15T08:42:05.572Z,17.49
2023-05-15T08:44:32.601Z,17.77
2023-05-15T08:46:59.882Z,18.12
2023-05-15T08:49:42.297Z,18.13
2023-05-15T08:52:09.508Z,18.10
2023-05-15T08:54:36.354Z,18.21
2023-05-15T08:57:04.457Z,18.24
2023-05-15T08:59:31.934Z,17.76
2023-05-15T09:01:59.738Z,18.05
2023-05-15T09:04:26.405Z,17.92
2023-05-15T09:06:54.055Z,18.21
2023-05-15T09:09:21.391Z,18.24
2023-05-15T09:11:49.016Z,17.85
2023-05-15T09:14:15.709Z,18.28
2023-05-15T09:16:42.695Z,19.03
2023-05-15T09:19:10.722Z,19.32
2023-05-15T09:21:37.383Z,19.34
2023-05-15T09:24:24.838Z,20.01
2023-05-15T09:27:06.954Z,19.95
2023-05-15T09:29:35.412Z,20.29
2023-05-15T09:32:08.109Z,20.81
2023-05-15T09:34:42.771Z,21.22
2023-05-15T09:37:11.624Z,21.42
2023-05-15T09:39:43.098Z,21.20
2023-05-15T09:42:14.617Z,21.39
2023-05-15T09:44:43.255Z,21.15
2023-05-15T09:47:11.646Z,21.48
2023-05-15T09:49:38.784Z,21.58
2023-05-15T09:52:09.822Z,21.50
2023-05-15T09:54:37.704Z,21.35
2023-05-15T09:57:09.158Z,21.11
2023-05-15T09:59:35.964Z,21.36
2023-05-15T10:02:02.629Z,21.35
2023-05-15T10:04:35.125Z,21.57
2023-05-15T10:07:01.829Z,21.30
2023-05-15T10:09:31.903Z,21.31
2023-05-15T10:11:59.080Z,21.57
2023-05-15T10:14:28.059Z,21.48
2023-05-15T10:16:56.449Z,21.42
2023-05-15T10:19:24.055Z,21.19
2023-05-15T10:21:53.838Z,21.27
2023-05-15T10:24:21.629Z,21.39
2023-05-15T10:26:49.230Z,21.41
2023-05-15T10:29:19.211Z,21.16
2023-05-15T10:31:48.897Z,21.01
2023-05-15T10:34:16.440Z,21.13
2023-05-15T10:36:43.395Z,21.04
2023-05-15T10:39:10.550Z,20.38
2023-05-15T10:41:39.509Z,20.49
2023-05-15T10:44:06.652Z,20.75
2023-05-15T10:46:35.827Z,21.03
2023-05-15T10:49:02.675Z,21.13
2023-05-15T10:51:31.887Z,21.34
2023-05-15T10:54:01.039Z,20.81
2023-05-15T10:56:31.052Z,20.97
2023-05-15T10:58:58.162Z,20.75
2023-05-15T11:01:30.738Z,21.20
2023-05-15T11:04:13.691Z,21.23
2023-05-15T11:06:45.892Z,21.42
2023-05-15T11:09:21.831Z,21.21
2023-05-15T11:11:51.742Z,21.01
2023-05-15T11:14:19.585Z,21.12
2023-05-15T11:16:55.585Z,21.32
2023-05-15T11:19:39.600Z,21.48
2023-05-15T11:22:09.308Z,22.08
2023-05-15T11:24:53.974Z,21.94
2023-05-15T11:27:26.393Z,21.97
2023-05-15T11:30:11.624Z,22.31
2023-05-15T11:32:47.318Z,22.23
2023-05-15T11:35:19.880Z,22.51
2023-05-15T11:37:49.183Z,22.53
2023-05-15T11:40:43.255Z,22.76
2023-05-15T11:43:29.361Z,22.98
2023-05-15T11:46:03.330Z,22.71
2023-05-15T11:48:41.552Z,22.49
2023-05-15T11:51:16.177Z,22.60
2023-05-15T11:53:43.510Z,22.53
2023-05-15T11:56:17.170Z,22.58
2023-05-15T11:58:44.013Z,22.45
2023-05-15T12:01:13.421Z,22.77
2023-05-15T12:03:40.287Z,22.14
2023-05-15T12:06:07.300Z,22.40
2023-05-15T12:08:36.301Z,22.63
2023-05-15T12:11:03.952Z,23.04
2023-05-15T12:13:32.225Z,22.99
2023-05-15T12:15:59.454Z,23.18
2023-05-15T12:18:26.726Z,23.42
2023-05-15T12:20:54.224Z,23.72
2023-05-15T12:23:22.524Z,23.73
2023-05-15T12:25:51.084Z,23.01
2023-05-15T12:28:18.163Z,22.87
2023-05-15T12:30:45.352Z,22.65
2023-05-15T12:33:12.329Z,22.72
2023-05-15T12:35:52.167Z,22.65
2023-05-15T12:38:22.361Z,22.39
2023-05-15T12:40:53.705Z,22.44
2023-05-15T12:43:24.936Z,22.55
2023-05-15T12:45:58.313Z,22.48
2023-05-15T12:48:34.986Z,22.48
2023-05-15T12:51:07.144Z,22.49
2023-05-15T12:53:39.377Z,22.71
2023-05-15T12:56:06.802Z,22.33
2023-05-15T12:58:33.730Z,22.53
2023-05-15T13:01:02.904Z,22.53
2023-05-15T13:03:29.906Z,22.64
2023-05-15T13:05:56.762Z,22.52
2023-05-15T13:08:23.713Z,22.60
2023-05-15T13:10:57.145Z,22.63
2023-05-15T13:13:23.892Z,22.24
2023-05-15T13:15:50.808Z,22.38
2023-05-15T13:18:18.722Z,22.48
2023-05-15T13:20:51.389Z,22.24
2023-05-15T13:23:21.056Z,22.29
2023-05-15T13:25:47.988Z,22.49
2023-05-15T13:28:14.721Z,22.38
2023-05-15T13:30:42.671Z,22.47
2023-05-15T13:33:10.866Z,22.10
2023-05-15T13:35:38.929Z,22.14
2023-05-15T13:38:05.914Z,21.97
2023-05-15T13:40:35.446Z,21.64
2023-05-15T13:43:02.102Z,21.47
2023-05-15T13:45:29.044Z,21.33
2023-05-15T13:47:56.099Z,21.46
2023-05-15T13:50:23.520Z,21.38
2023-05-15T13:52:50.462Z,21.56
2023-05-15T13:55:17.173Z,21.49
2023-05-15T13:57:44.062Z,21.47
2023-05-15T14:00:13.259Z,21.37
2023-05-15T14:02:41.131Z,21.29
2023-05-15T14:05:09.362Z,21.28
2023-05-15T14:07:36.180Z,21.25
2023-05-15T14:10:03.649Z,21.13
2023-05-15T14:12:30.914Z,21.08
2023-05-15T14:14:57.939Z,21.19
2023-05-15T14:17:24.876Z,21.00
2023-05-15T14:19:52.221Z,21.14
2023-05-15T14:22:19.539Z,20.94
2023-05-15T14:24:46.284Z,21.10
2023-05-15T14:27:12.951Z,21.11
2023-05-15T14:29:40.022Z,20.68
2023-05-15T14:32:07.313Z,20.88
2023-05-15T14:34:34.133Z,20.66
2023-05-15T14:37:00.908Z,20.52
2023-05-15T14:39:27.553Z,20.48
2023-05-15T14:41:54.224Z,20.28
2023-05-15T14:44:20.926Z,20.11
2023-05-15T14:46:47.600Z,20.21
2023-05-15T14:49:14.298Z,20.22
2023-05-15T14:51:41.438Z,20.05
2023-05-15T14:54:08.052Z,20.16
2023-05-15T14:56:34.655Z,20.15
2023-05-15T14:59:01.339Z,20.29
2023-05-15T15:01:28.034Z,20.45
2023-05-15T15:03:54.712Z,20.36
2023-05-15T15:06:21.429Z,20.52
2023-05-15T15:08:48.227Z,20.40
2023-05-15T15:11:14.943Z,20.46
2023-05-15T15:13:41.600Z,20.33
2023-05-15T15:16:08.385Z,20.19
2023-05-15T15:18:35.204Z,20.07
2023-05-15T15:21:01.951Z,20.13
2023-05-15T15:23:29.977Z,20.04
2023-05-15T15:25:56.697Z,19.77
2023-05-15T15:28:23.411Z,19.68
2023-05-15T15:30:50.061Z,19.80
2023-05-15T15:33:16.739Z,19.48
2023-05-15T15:35:43.466Z,19.54
2023-05-15T15:38:11.735Z,19.49
2023-05-15T15:40:38.455Z,19.39
2023-05-15T15:43:05.144Z,19.23
2023-05-15T15:45:31.901Z,19.14
2023-05-15T15:47:58.612Z,19.08
2023-05-15T15:50:25.735Z,18.99
2023-05-15T15:52:52.574Z,19.05
2023-05-15T15:55:19.280Z,18.74
2023-05-15T15:57:45.946Z,18.61
2023-05-15T16:00:13.127Z,18.68
2023-05-15T16:02:43.023Z,18.59
2023-05-15T16:05:10.052Z,18.62
2023-05-15T16:07:36.708Z,18.75
2023-05-15T16:10:11.995Z,18.72
2023-05-15T16:12:40.878Z,18.50
2023-05-15T16:15:20.784Z,18.62
2023-05-15T16:17:50.990Z,18.64
2023-05-15T16:20:17.896Z,18.66
2023-05-15T16:22:44.574Z,18.45
2023-05-15T16:25:11.349Z,18.46
2023-05-15T16:27:38.170Z,18.48
2023-05-15T16:30:05.371Z,18.37
2023-05-15T16:32:32.117Z,18.39
2023-05-15T16:34:58.944Z,18.33
2023-05-15T16:37:25.625Z,18.17
2023-05-15T16:39:52.362Z,18.06
2023-05-15T16:42:18.993Z,18.01
2023-05-15T16:44:45.693Z,17.97
2023-05-15T16:47:12.824Z,17.82
2023-05-15T16:49:40.917Z,17.65
2023-05-15T16:52:08.680Z,17.54
2023-05-15T16:54:35.428Z,17.36
2023-05-15T16:57:02.092Z,17.34
2023-05-15T16:59:28.804Z,17.24
2023-05-15T17:01:55.634Z,17.10
2023-05-15T17:04:22.328Z,17.02
2023-05-15T17:06:48.951Z,16.94
2023-05-15T17:09:15.987Z,16.92
2023-05-15T17:11:42.702Z,16.82
2023-05-15T17:14:09.319Z,16.78
2023-05-15T17:16:36.255Z,16.51
2023-05-15T17:19:02.996Z,16.52
2023-05-15T17:21:29.717Z,16.37
2023-05-15T17:23:56.870Z,16.45
2023-05-15T17:26:23.845Z,16.26
2023-05-15T17:28:50.564Z,16.15
2023-05-15T17:31:17.383Z,16.22
2023-05-15T17:33:44.221Z,16.01
2023-05-15T17:36:10.949Z,16.06
2023-05-15T17:38:37.653Z,16.08
2023-05-15T17:41:05.112Z,15.93
2023-05-15T17:43:31.883Z,15.86
2023-05-15T17:46:00.509Z,15.79
2023-05-15T17:48:27.544Z,15.61
2023-05-15T17:50:54.229Z,15.59
2023-05-15T17:53:22.742Z,15.13
2023-05-15T17:55:49.552Z,14.99
2023-05-15T17:58:16.200Z,14.70
2023-05-15T18:00:43.325Z,14.62
2023-05-15T18:03:09.965Z,14.65
2023-05-15T18:05:36.712Z,14.65
2023-05-15T18:08:03.815Z,14.54
2023-05-15T18:10:30.939Z,14.69
2023-05-15T18:12:58.144Z,14.58
2023-05-15T18:15:25.115Z,14.59
2023-05-15T18:17:52.069Z,14.57
2023-05-15T18:20:18.833Z,14.48
2023-05-15T18:22:46.150Z,14.41
2023-05-15T18:25:12.874Z,14.42
2023-05-15T18:27:39.658Z,14.29
2023-05-15T18:30:07.282Z,14.32
2023-05-15T18:32:34.101Z,14.14
2023-05-15T18:35:00.871Z,13.86
2023-05-15T18:37:27.539Z,13.95
2023-05-15T18:39:57.049Z,13.58
2023-05-15T18:42:25.373Z,13.76
2023-05-15T18:44:52.562Z,13.88
2023-05-15T18:47:19.312Z,13.89
2023-05-15T18:49:46.317Z,13.83
2023-05-15T18:52:13.105Z,13.57
2023-05-15T18:54:41.380Z,13.30
2023-05-15T18:57:08.368Z,13.45
2023-05-15T18:59:35.320Z,13.63
2023-05-15T19:02:02.252Z,13.71
2023-05-15T19:04:28.965Z,13.71
2023-05-15T19:06:55.674Z,13.27
2023-05-15T19:09:22.341Z,13.29
2023-05-15T19:11:52.434Z,13.45
2023-05-15T19:14:20.036Z,13.15
2023-05-15T19:16:46.756Z,13.34
2023-05-15T19:19:13.672Z,13.05
2023-05-15T19:21:40.479Z,13.08
2023-05-15T19:24:07.667Z,13.18
2023-05-15T19:26:34.569Z,13.11
2023-05-15T19:29:01.274Z,13.10
2023-05-15T19:31:31.824Z,13.13
2023-05-15T19:33:59.760Z,13.37
2023-05-15T19:36:27.220Z,13.26
2023-05-15T19:38:53.954Z,13.11
2023-05-15T19:41:22.355Z,13.12
2023-05-15T19:43:50.869Z,13.12
2023-05-15T19:46:18.463Z,12.94
2023-05-15T19:48:45.729Z,12.68
2023-05-15T19:51:12.844Z,12.74
2023-05-15T19:53:39.537Z,12.63
2023-05-15T19:56:06.457Z,12.51
2023-05-15T19:58:33.309Z,12.72
2023-05-15T20:01:01.080Z,12.87
2023-05-15T20:03:33.013Z,12.96
2023-05-15T20:06:03.456Z,12.82
2023-05-15T20:08:30.458Z,12.96
2023-05-15T20:10:57.928Z,12.89
2023-05-15T20:13:24.772Z,12.85
2023-05-15T20:15:58.158Z,13.02
2023-05-15T20:18:32.177Z,12.74
2023-05-15T20:21:00.514Z,12.61
2023-05-15T20:23:27.184Z,12.51
2023-05-15T20:25:53.909Z,12.33
2023-05-15T20:28:24.846Z,12.57
2023-05-15T20:30:52.565Z,12.67
2023-05-15T20:33:19.691Z,12.56
2023-05-15T20:35:47.716Z,12.62
2023-05-15T20:38:14.595Z,12.19
2023-05-15T20:40:41.507Z,12.24
2023-05-15T20:43:08.239Z,12.29
2023-05-15T20:45:34.929Z,12.16
2023-05-15T20:48:01.856Z,12.48
2023-05-15T20:50:28.787Z,12.56
2023-05-15T20:52:55.786Z,12.67
2023-05-15T20:55:22.800Z,12.64
2023-05-15T20:57:50.341Z,12.53
2023-05-15T21:00:18.115Z,12.33
2023-05-15T21:02:46.717Z,12.25
2023-05-15T21:05:13.816Z,12.21
2023-05-15T21:07:41.440Z,12.30
2023-05-15T21:10:08.931Z,12.26
2023-05-15T21:12:35.643Z,12.48
2023-05-15T21:15:05.398Z,12.56
2023-05-15T21:17:32.130Z,12.52
2023-05-15T21:19:58.900Z,12.31
2023-05-15T21:22:25.791Z,12.30
2023-05-15T21:24:52.656Z,11.99
2023-05-15T21:27:19.348Z,12.12
2023-05-15T21:29:46.453Z,12.37
2023-05-15T21:32:13.223Z,12.39
2023-05-15T21:34:39.992Z,12.48
2023-05-15T21:37:06.636Z,12.52
2023-05-15T21:39:33.300Z,12.49
2023-05-15T21:41:59.974Z,12.53
2023-05-15T21:44:26.609Z,12.57
2023-05-15T21:46:53.499Z,12.51
2023-05-15T21:49:20.181Z,12.54
2023-05-15T21:51:46.863Z,12.49
2023-05-15T21:54:13.743Z,12.45
2023-05-15T21:56:41.257Z,12.51
2023-05-15T21:59:08.120Z,12.32
2023-05-15T22:01:36.366Z,12.41
2023-05-15T22:04:03.225Z,12.48
2023-05-15T22:06:29.912Z,12.23
2023-05-15T22:08:57.590Z,12.41
2023-05-15T22:11:24.256Z,12.31
2023-05-15T22:13:51.130Z,12.35
2023-05-15T22:16:19.430Z,12.19
2023-05-15T22:18:47.652Z,12.02
2023-05-15T22:21:15.180Z,11.82
2023-05-15T22:23:41.962Z,11.76
2023-05-15T22:26:08.683Z,11.95
2023-05-15T22:28:35.623Z,12.08
2023-05-15T22:31:04.253Z,12.10
2023-05-15T22:33:30.964Z,12.10
2023-05-15T22:35:57.680Z,11.81
2023-05-15T22:38:24.618Z,11.69
2023-05-15T22:40:52.255Z,11.59
2023-05-15T22:43:19.457Z,11.69
2023-05-15T22:45:46.123Z,11.49
2023-05-15T22:48:12.878Z,11.50
2023-05-15T22:50:39.604Z,11.72
2023-05-15T22:53:06.286Z,11.84
2023-05-15T22:55:32.994Z,12.00
2023-05-15T22:57:59.664Z,12.08
2023-05-15T23:00:26.532Z,12.18
2023-05-15T23:02:55.347Z,12.19
2023-05-15T23:05:22.476Z,12.22
2023-05-15T23:07:49.185Z,11.64
2023-05-15T23:10:15.872Z,11.49
2023-05-15T23:12:42.613Z,11.47
2023-05-15T23:15:10.584Z,11.23
2023-05-15T23:17:37.793Z,11.36
2023-05-15T23:20:06.919Z,11.56
2023-05-15T23:22:33.660Z,11.52
2023-05-15T23:25:00.798Z,11.51
2023-05-15T23:27:27.608Z,11.62
2023-05-15T23:29:54.431Z,11.65
2023-05-15T23:32:21.248Z,11.66
2023-05-15T23:34:48.039Z,11.52
2023-05-15T23:37:14.865Z,11.48
2023-05-15T23:39:41.476Z,11.51
2023-05-15T23:42:10.079Z,11.43
2023-05-15T23:44:36.936Z,11.28
2023-05-15T23:47:04.573Z,11.01
2023-05-15T23:49:32.920Z,11.14
2023-05-15T23:51:59.740Z,11.13
2023-05-15T23:54:26.369Z,11.05
2023-05-15T23:56:53.370Z,11.02
2023-05-15T23:59:20.077Z,11.00
